Time;durP1;ratioP1;P1;durP2;ratioP2;P2;SDS_P1;SDS_P2;PMS_P1;PMS_P2;Temp;Humidity;BMP_temperature;BMP_pressure;BME280_temperature;BME280_humidity;BME280_pressure;Samples;Min_cycle;Max_cycle;Signal;HPM_P1;HPM_P2
2023/06/16 00:00:11;;;;;;;6.32;4.90;;;;;;;;;;4925697;28;20050;-49
2023/06/16 00:02:41;;;;;;;8.30;4.97;;;;;;;;;;4933674;28;20705;-50
2023/06/16 00:05:12;;;;;;;10.93;5.50;;;;;;;;;;4968724;28;20076;-48
2023/06/16 00:07:39;;;;;;;7.17;5.20;;;;;;;;;;4951880;28;20096;-52
2023/06/16 00:10:06;;;;;;;5.82;5.00;;;;;;;;;;4933088;28;20561;-50
2023/06/16 00:12:33;;;;;;;5.30;4.80;;;;;;;;;;4921014;28;20035;-50
2023/06/16 00:14:58;;;;;;;8.73;4.97;;;;;;;;;;4933356;28;20040;-49
2023/06/16 00:17:26;;;;;;;7.53;5.22;;;;;;;;;;4937650;28;20061;-47
2023/06/16 00:19:51;;;;;;;5.80;4.60;;;;;;;;;;4921923;28;20032;-47
2023/06/16 00:22:17;;;;;;;8.38;4.65;;;;;;;;;;4954860;28;20032;-49
2023/06/16 00:24:44;;;;;;;7.47;5.03;;;;;;;;;;5009354;28;20044;-47
2023/06/16 00:27:10;;;;;;;8.77;5.25;;;;;;;;;;4916758;28;20103;-49
2023/06/16 00:29:38;;;;;;;11.23;5.30;;;;;;;;;;4945194;28;20046;-47
2023/06/16 00:32:04;;;;;;;10.23;4.55;;;;;;;;;;5008559;28;20031;-50
2023/06/16 00:34:29;;;;;;;6.00;5.05;;;;;;;;;;4950585;28;20036;-46
2023/06/16 00:36:55;;;;;;;5.30;4.80;;;;;;;;;;4937625;28;20401;-48
2023/06/16 00:39:21;;;;;;;6.13;4.88;;;;;;;;;;4917510;28;20054;-47
2023/06/16 00:41:46;;;;;;;7.65;5.30;;;;;;;;;;4930834;28;20032;-45
2023/06/16 00:44:12;;;;;;;8.27;4.75;;;;;;;;;;4965952;28;20050;-50
2023/06/16 00:46:37;;;;;;;9.05;5.05;;;;;;;;;;4971947;28;20531;-50
2023/06/16 00:49:04;;;;;;;5.95;5.00;;;;;;;;;;4932469;28;20044;-51
2023/06/16 00:51:30;;;;;;;6.15;4.68;;;;;;;;;;4966591;28;20024;-50
2023/06/16 00:53:56;;;;;;;8.52;5.22;;;;;;;;;;4958125;28;20044;-46
2023/06/16 00:56:23;;;;;;;6.00;4.88;;;;;;;;;;4991691;28;20024;-46
2023/06/16 00:58:51;;;;;;;4.90;4.45;;;;;;;;;;4931979;28;20400;-48
2023/06/16 01:01:17;;;;;;;6.85;5.00;;;;;;;;;;4919909;28;20024;-50
2023/06/16 01:03:44;;;;;;;11.23;5.45;;;;;;;;;;5008196;28;20044;-48
2023/06/16 01:06:41;;;;;;;5.85;5.25;;;;;;;;;;4946018;28;20032;-48
2023/06/16 01:09:29;;;;;;;6.53;5.10;;;;;;;;;;4990258;28;20034;-47
2023/06/16 01:12:12;;;;;;;5.45;4.40;;;;;;;;;;4931995;28;20054;-49
2023/06/16 01:14:58;;;;;;;7.40;4.80;;;;;;;;;;4958449;28;20053;-48
2023/06/16 01:17:26;;;;;;;9.98;5.45;;;;;;;;;;4945417;28;20109;-50
2023/06/16 01:20:10;;;;;;;5.45;4.95;;;;;;;;;;4931818;28;20047;-47
2023/06/16 01:23:04;;;;;;;8.35;5.22;;;;;;;;;;4932410;28;20027;-46
2023/06/16 01:25:31;;;;;;;10.23;5.10;;;;;;;;;;4948300;28;20445;-52
2023/06/16 01:28:00;;;;;;;8.77;5.18;;;;;;;;;;4931302;28;20095;-51
2023/06/16 01:30:28;;;;;;;5.70;4.85;;;;;;;;;;4940408;28;20098;-45
2023/06/16 01:32:56;;;;;;;5.60;4.72;;;;;;;;;;4916434;28;20028;-48
2023/06/16 01:35:23;;;;;;;6.20;4.65;;;;;;;;;;4950799;28;20534;-49
2023/06/16 01:37:51;;;;;;;11.68;5.20;;;;;;;;;;4975403;28;20046;-49
2023/06/16 01:40:18;;;;;;;6.18;5.50;;;;;;;;;;4933213;28;20051;-51
2023/06/16 01:42:46;;;;;;;11.27;5.05;;;;;;;;;;4931050;28;20036;-46
2023/06/16 01:45:14;;;;;;;9.68;5.25;;;;;;;;;;4958546;28;20536;-46
2023/06/16 01:47:40;;;;;;;9.05;5.43;;;;;;;;;;4949541;28;20043;-46
2023/06/16 01:50:06;;;;;;;7.70;4.88;;;;;;;;;;4916258;28;20452;-49
2023/06/16 01:52:31;;;;;;;8.77;5.63;;;;;;;;;;4931206;28;20398;-49
2023/06/16 01:54:57;;;;;;;9.35;5.05;;;;;;;;;;4961071;28;20381;-46
2023/06/16 01:57:23;;;;;;;6.60;6.00;;;;;;;;;;4932472;28;20059;-48
2023/06/16 02:00:03;;;;;;;8.73;5.35;;;;;;;;;;4929178;28;20040;-46
2023/06/16 02:02:30;;;;;;;6.60;5.30;;;;;;;;;;4932866;28;20427;-50
2023/06/16 02:05:03;;;;;;;11.45;4.65;;;;;;;;;;4931427;28;20044;-51
2023/06/16 02:07:33;;;;;;;5.45;4.63;;;;;;;;;;4951398;28;20028;-48
2023/06/16 02:09:59;;;;;;;8.10;4.90;;;;;;;;;;4952543;28;20044;-47
2023/06/16 02:12:25;;;;;;;5.38;4.88;;;;;;;;;;4947952;28;20035;-47
2023/06/16 02:14:51;;;;;;;7.30;4.88;;;;;;;;;;4980947;28;20037;-50
2023/06/16 02:17:16;;;;;;;5.57;5.07;;;;;;;;;;4932159;28;20039;-49
2023/06/16 02:19:43;;;;;;;10.55;5.22;;;;;;;;;;4930969;28;20032;-50
2023/06/16 02:22:08;;;;;;;7.45;5.07;;;;;;;;;;4941961;28;20042;-50
2023/06/16 02:24:35;;;;;;;6.57;5.10;;;;;;;;;;4917719;28;20405;-47
2023/06/16 02:27:03;;;;;;;5.93;4.90;;;;;;;;;;4955427;28;20503;-50
2023/06/16 02:29:29;;;;;;;7.38;5.35;;;;;;;;;;4953237;28;20076;-47
2023/06/16 02:31:55;;;;;;;6.30;5.05;;;;;;;;;;4937450;28;20032;-48
2023/06/16 02:34:20;;;;;;;8.75;5.03;;;;;;;;;;4956027;28;20048;-48
2023/06/16 02:36:46;;;;;;;5.22;4.70;;;;;;;;;;4939367;28;20024;-50
2023/06/16 02:39:13;;;;;;;5.68;5.22;;;;;;;;;;4964279;28;20048;-48
2023/06/16 02:41:39;;;;;;;8.85;4.80;;;;;;;;;;4931365;28;20078;-46
2023/06/16 02:44:04;;;;;;;6.63;4.53;;;;;;;;;;4918810;28;20048;-50
2023/06/16 02:46:29;;;;;;;5.38;4.90;;;;;;;;;;4917454;28;20087;-48
2023/06/16 02:48:55;;;;;;;12.23;5.03;;;;;;;;;;4915483;29;20523;-52
2023/06/16 02:51:20;;;;;;;5.47;4.97;;;;;;;;;;4946596;29;20039;-48
2023/06/16 02:53:46;;;;;;;6.95;5.10;;;;;;;;;;4962564;28;20045;-49
2023/06/16 02:56:12;;;;;;;6.80;5.00;;;;;;;;;;4941900;28;20391;-51
2023/06/16 02:58:38;;;;;;;10.00;5.22;;;;;;;;;;4935532;28;20119;-51
2023/06/16 03:01:04;;;;;;;7.05;5.07;;;;;;;;;;4932155;28;20593;-46
2023/06/16 03:03:31;;;;;;;5.90;4.72;;;;;;;;;;4982236;28;20109;-49
2023/06/16 03:06:00;;;;;;;6.38;5.00;;;;;;;;;;4957090;28;20016;-49
2023/06/16 03:08:26;;;;;;;6.55;4.85;;;;;;;;;;4928616;28;20032;-51
2023/06/16 03:10:51;;;;;;;5.78;4.85;;;;;;;;;;4971867;28;20016;-46
2023/06/16 03:13:17;;;;;;;11.20;5.22;;;;;;;;;;4991732;28;20062;-48
2023/06/16 03:15:46;;;;;;;8.85;5.38;;;;;;;;;;4966175;28;20880;-46
2023/06/16 03:18:11;;;;;;;6.07;5.05;;;;;;;;;;4934374;28;20042;-50
2023/06/16 03:20:38;;;;;;;9.55;5.20;;;;;;;;;;4955380;28;20493;-48
2023/06/16 03:23:03;;;;;;;9.43;5.10;;;;;;;;;;4951630;28;20032;-49
2023/06/16 03:25:30;;;;;;;7.47;5.10;;;;;;;;;;4931855;29;20044;-47
2023/06/16 03:27:56;;;;;;;8.05;5.05;;;;;;;;;;4933756;28;20032;-51
2023/06/16 03:30:22;;;;;;;5.93;4.90;;;;;;;;;;4931183;28;20040;-51
2023/06/16 03:32:47;;;;;;;6.18;5.13;;;;;;;;;;4943372;28;20082;-52
2023/06/16 03:35:13;;;;;;;6.93;5.00;;;;;;;;;;4929902;28;20055;-48
2023/06/16 03:37:39;;;;;;;9.98;5.13;;;;;;;;;;4917725;28;20032;-51
2023/06/16 03:40:06;;;;;;;7.03;5.30;;;;;;;;;;4943770;28;20054;-49
2023/06/16 03:42:35;;;;;;;5.72;5.15;;;;;;;;;;4915784;28;20038;-49
2023/06/16 03:45:01;;;;;;;11.30;5.22;;;;;;;;;;4949268;28;20038;-48
2023/06/16 03:47:27;;;;;;;7.50;5.32;;;;;;;;;;4948382;28;20024;-48
2023/06/16 03:49:53;;;;;;;8.85;5.55;;;;;;;;;;4934891;28;20487;-46
2023/06/16 03:52:19;;;;;;;9.35;6.65;;;;;;;;;;4918732;28;20024;-47
2023/06/16 03:54:44;;;;;;;8.30;5.30;;;;;;;;;;4946000;28;20047;-48
2023/06/16 03:57:10;;;;;;;5.93;5.43;;;;;;;;;;4975645;28;20043;-51
2023/06/16 03:59:36;;;;;;;6.15;5.50;;;;;;;;;;4938519;28;20058;-51
2023/06/16 04:02:07;;;;;;;5.80;5.10;;;;;;;;;;4933533;28;20032;-53
2023/06/16 04:04:36;;;;;;;8.60;5.45;;;;;;;;;;4917511;28;20036;-49
2023/06/16 04:07:09;;;;;;;5.78;5.28;;;;;;;;;;4933432;28;20075;-48
2023/06/16 04:09:34;;;;;;;5.68;5.05;;;;;;;;;;4968053;28;20070;-47
2023/06/16 04:12:00;;;;;;;10.05;5.90;;;;;;;;;;4961098;28;20072;-48
2023/06/16 04:14:25;;;;;;;7.20;5.82;;;;;;;;;;4919819;28;20036;-50
2023/06/16 04:16:51;;;;;;;7.13;5.22;;;;;;;;;;4933816;28;20028;-52
2023/06/16 04:19:19;;;;;;;10.77;5.70;;;;;;;;;;4939016;28;20507;-49
2023/06/16 04:21:45;;;;;;;6.32;5.43;;;;;;;;;;4958471;28;20032;-46
2023/06/16 04:24:11;;;;;;;8.27;5.20;;;;;;;;;;4943299;28;20043;-48
2023/06/16 04:26:37;;;;;;;5.63;5.22;;;;;;;;;;4933867;28;20095;-50
2023/06/16 04:29:04;;;;;;;6.95;6.25;;;;;;;;;;4966076;28;20038;-49
2023/06/16 04:31:35;;;;;;;9.18;5.82;;;;;;;;;;4934210;28;20032;-47
2023/06/16 04:34:01;;;;;;;9.02;5.65;;;;;;;;;;4916754;28;20487;-47
2023/06/16 04:36:29;;;;;;;6.10;5.50;;;;;;;;;;4927898;28;20440;-51
2023/06/16 04:38:56;;;;;;;6.60;5.78;;;;;;;;;;4933756;29;20051;-51
2023/06/16 04:41:22;;;;;;;9.88;6.28;;;;;;;;;;4933778;29;20027;-50
2023/06/16 04:43:48;;;;;;;6.82;5.88;;;;;;;;;;4933777;28;20036;-50
2023/06/16 04:46:13;;;;;;;10.05;6.30;;;;;;;;;;4922529;28;20123;-47
2023/06/16 04:48:39;;;;;;;6.85;5.50;;;;;;;;;;4948860;28;20046;-49
2023/06/16 04:51:04;;;;;;;8.32;5.82;;;;;;;;;;4975428;28;20091;-50
2023/06/16 04:53:30;;;;;;;8.00;5.60;;;;;;;;;;4999446;28;20089;-50
2023/06/16 04:55:56;;;;;;;5.95;5.35;;;;;;;;;;4932613;29;20038;-50
2023/06/16 04:58:21;;;;;;;6.57;5.25;;;;;;;;;;4939558;28;20043;-51
2023/06/16 05:00:47;;;;;;;5.80;5.22;;;;;;;;;;4932985;28;20036;-47
2023/06/16 05:03:12;;;;;;;7.18;5.55;;;;;;;;;;4921402;28;20106;-50
2023/06/16 05:05:38;;;;;;;8.13;5.70;;;;;;;;;;4929770;28;20036;-49
2023/06/16 05:08:04;;;;;;;7.18;5.95;;;;;;;;;;4964466;28;20039;-51
2023/06/16 05:10:29;;;;;;;11.25;6.50;;;;;;;;;;4988066;28;20075;-48
2023/06/16 05:12:57;;;;;;;6.22;5.72;;;;;;;;;;4915587;28;20465;-53
2023/06/16 05:15:23;;;;;;;9.30;5.60;;;;;;;;;;4925825;28;20043;-50
2023/06/16 05:17:48;;;;;;;6.20;5.70;;;;;;;;;;4900423;28;20024;-53
2023/06/16 05:20:14;;;;;;;11.95;6.25;;;;;;;;;;4917370;28;20173;-49
2023/06/16 05:22:39;;;;;;;6.88;6.25;;;;;;;;;;4922771;28;20059;-50
2023/06/16 05:25:05;;;;;;;7.88;6.22;;;;;;;;;;4949693;28;20118;-51
2023/06/16 05:27:31;;;;;;;9.20;5.70;;;;;;;;;;4961129;28;20020;-48
2023/06/16 05:29:56;;;;;;;5.82;5.22;;;;;;;;;;4932324;28;20043;-47
2023/06/16 05:32:22;;;;;;;6.35;5.40;;;;;;;;;;4960325;28;20032;-47
2023/06/16 05:34:49;;;;;;;6.43;5.38;;;;;;;;;;4957931;28;20047;-45
2023/06/16 05:37:15;;;;;;;9.30;5.68;;;;;;;;;;4930396;28;20158;-49
2023/06/16 05:39:45;;;;;;;8.70;5.18;;;;;;;;;;4962219;28;20095;-49
2023/06/16 05:42:14;;;;;;;6.70;5.32;;;;;;;;;;4926408;28;20032;-49
2023/06/16 05:44:44;;;;;;;8.95;5.15;;;;;;;;;;4928625;28;20063;-50
2023/06/16 05:47:10;;;;;;;6.32;5.68;;;;;;;;;;4929726;28;20062;-48
2023/06/16 05:49:35;;;;;;;7.25;5.10;;;;;;;;;;4931748;28;20067;-50
2023/06/16 05:52:05;;;;;;;10.00;5.47;;;;;;;;;;4933920;28;20020;-51
2023/06/16 05:54:35;;;;;;;7.78;5.40;;;;;;;;;;4959772;28;20071;-49
2023/06/16 05:57:01;;;;;;;5.75;5.20;;;;;;;;;;4937281;28;20157;-51
2023/06/16 05:59:28;;;;;;;7.18;5.47;;;;;;;;;;4935379;28;20508;-51
2023/06/16 06:01:54;;;;;;;7.35;5.15;;;;;;;;;;4933167;28;20028;-51
2023/06/16 06:04:26;;;;;;;9.45;5.28;;;;;;;;;;4931045;28;20043;-51
2023/06/16 06:06:51;;;;;;;;;;;;;;;;;;4946215;28;20027;-48
2023/06/16 06:09:17;;;;;;;6.47;5.30;;;;;;;;;;4960058;28;19952;-51
2023/06/16 06:11:42;;;;;;;7.60;4.97;;;;;;;;;;4933685;28;20042;-49
2023/06/16 06:14:07;;;;;;;6.75;5.03;;;;;;;;;;4930777;28;20584;-52
2023/06/16 06:16:33;;;;;;;5.90;5.40;;;;;;;;;;4934329;28;20042;-47
2023/06/16 06:18:59;;;;;;;5.57;5.07;;;;;;;;;;4944106;28;20035;-55
2023/06/16 06:21:24;;;;;;;7.20;5.68;;;;;;;;;;4975859;28;20055;-48
2023/06/16 06:23:51;;;;;;;7.05;5.22;;;;;;;;;;4946462;28;20531;-50
2023/06/16 06:26:17;;;;;;;8.27;5.50;;;;;;;;;;4945772;28;20043;-51
2023/06/16 06:28:43;;;;;;;6.05;5.00;;;;;;;;;;4924512;28;20123;-49
2023/06/16 06:31:08;;;;;;;5.22;4.70;;;;;;;;;;4930167;28;20042;-49
2023/06/16 06:33:34;;;;;;;5.55;5.00;;;;;;;;;;4932728;28;20055;-51
2023/06/16 06:36:00;;;;;;;8.45;5.35;;;;;;;;;;4939263;28;20020;-51
2023/06/16 06:38:25;;;;;;;6.80;4.60;;;;;;;;;;4916870;28;20034;-52
2023/06/16 06:40:51;;;;;;;6.45;4.93;;;;;;;;;;4933402;28;20035;-48
2023/06/16 06:43:17;;;;;;;6.00;5.38;;;;;;;;;;4927383;28;20405;-46
2023/06/16 06:45:44;;;;;;;6.82;4.68;;;;;;;;;;4937636;28;20781;-52
2023/06/16 06:48:09;;;;;;;5.18;4.68;;;;;;;;;;4940710;28;20543;-48
2023/06/16 06:50:35;;;;;;;8.13;5.07;;;;;;;;;;4930207;28;20036;-56
2023/06/16 06:53:00;;;;;;;6.20;4.70;;;;;;;;;;4995231;28;20384;-53
2023/06/16 06:55:26;;;;;;;13.25;4.75;;;;;;;;;;4944968;28;20044;-51
2023/06/16 06:57:51;;;;;;;7.30;5.15;;;;;;;;;;4948353;28;20029;-47
2023/06/16 07:00:17;;;;;;;5.90;4.63;;;;;;;;;;4911564;28;20048;-50
2023/06/16 07:02:42;;;;;;;11.05;4.95;;;;;;;;;;4935225;28;20038;-49
2023/06/16 07:05:08;;;;;;;4.65;4.25;;;;;;;;;;4899486;28;20040;-50
2023/06/16 07:07:34;;;;;;;6.80;5.00;;;;;;;;;;4955531;28;20054;-48
2023/06/16 07:10:00;;;;;;;7.13;4.50;;;;;;;;;;4926433;28;20186;-48
2023/06/16 07:12:26;;;;;;;6.18;5.00;;;;;;;;;;4943470;28;20073;-50
2023/06/16 07:14:51;;;;;;;8.40;4.10;;;;;;;;;;4932090;28;20047;-51
2023/06/16 07:17:17;;;;;;;4.78;4.30;;;;;;;;;;5017904;28;20046;-50
2023/06/16 07:19:43;;;;;;;12.25;4.30;;;;;;;;;;4927890;28;20044;-51
2023/06/16 07:22:09;;;;;;;4.90;4.43;;;;;;;;;;4930445;28;20441;-54
2023/06/16 07:24:34;;;;;;;5.03;4.38;;;;;;;;;;4946116;28;20493;-47
2023/06/16 07:27:01;;;;;;;4.60;4.28;;;;;;;;;;4919035;28;20047;-49
2023/06/16 07:29:27;;;;;;;4.85;4.35;;;;;;;;;;4946569;28;20046;-48
2023/06/16 07:31:53;;;;;;;11.70;4.72;;;;;;;;;;4923624;28;20032;-51
2023/06/16 07:34:18;;;;;;;7.97;5.00;;;;;;;;;;4943529;28;20641;-53
2023/06/16 07:36:44;;;;;;;9.15;4.75;;;;;;;;;;4932534;28;20047;-53
2023/06/16 07:39:10;;;;;;;6.93;4.40;;;;;;;;;;4925235;28;20062;-51
2023/06/16 07:41:36;;;;;;;5.10;4.60;;;;;;;;;;4933043;28;20544;-48
2023/06/16 07:44:02;;;;;;;6.05;4.10;;;;;;;;;;4933249;28;20497;-50
2023/06/16 07:46:28;;;;;;;8.20;4.50;;;;;;;;;;4984514;28;20035;-52
2023/06/16 07:48:53;;;;;;;5.68;4.50;;;;;;;;;;4934495;28;20040;-50
2023/06/16 07:51:20;;;;;;;7.00;4.50;;;;;;;;;;4945187;28;20036;-51
2023/06/16 07:53:48;;;;;;;9.68;4.03;;;;;;;;;;4941568;28;20497;-52
2023/06/16 07:56:14;;;;;;;6.80;4.60;;;;;;;;;;4948922;28;20031;-50
2023/06/16 07:58:39;;;;;;;8.15;4.63;;;;;;;;;;4927743;28;20046;-47
2023/06/16 08:01:05;;;;;;;5.45;4.43;;;;;;;;;;4930330;28;20035;-53
2023/06/16 08:03:31;;;;;;;6.90;4.68;;;;;;;;;;4944719;28;20067;-49
2023/06/16 08:05:57;;;;;;;6.82;4.53;;;;;;;;;;4944592;28;20035;-49
2023/06/16 08:08:23;;;;;;;15.27;4.40;;;;;;;;;;4936951;28;20031;-49
2023/06/16 08:10:49;;;;;;;4.90;4.40;;;;;;;;;;4918502;28;20035;-49
2023/06/16 08:13:15;;;;;;;6.68;4.60;;;;;;;;;;4915923;28;20038;-54
2023/06/16 08:15:40;;;;;;;5.38;4.78;;;;;;;;;;4917895;29;20047;-51
2023/06/16 08:18:06;;;;;;;6.93;4.90;;;;;;;;;;4934413;28;20027;-51
2023/06/16 08:20:33;;;;;;;11.43;4.50;;;;;;;;;;4960595;28;20046;-50
2023/06/16 08:22:58;;;;;;;9.25;5.22;;;;;;;;;;4929803;28;20032;-53
2023/06/16 08:25:23;;;;;;;11.07;5.22;;;;;;;;;;4934462;28;20043;-48
2023/06/16 08:27:49;;;;;;;7.60;5.10;;;;;;;;;;4943590;28;20058;-48
2023/06/16 08:30:17;;;;;;;7.00;4.93;;;;;;;;;;4943393;28;20041;-48
2023/06/16 08:32:43;;;;;;;8.43;4.45;;;;;;;;;;4930351;28;20035;-51
2023/06/16 08:35:10;;;;;;;5.70;4.60;;;;;;;;;;4966766;28;20106;-48
2023/06/16 08:37:36;;;;;;;6.40;4.70;;;;;;;;;;4938940;28;20038;-52
2023/06/16 08:40:04;;;;;;;8.05;5.18;;;;;;;;;;4947779;28;20045;-49
2023/06/16 08:42:32;;;;;;;7.10;5.10;;;;;;;;;;4933449;28;20028;-46
2023/06/16 08:45:00;;;;;;;14.48;5.28;;;;;;;;;;4975360;28;20077;-50
2023/06/16 08:47:26;;;;;;;7.35;4.97;;;;;;;;;;4942104;28;20462;-52
2023/06/16 08:49:54;;;;;;;7.90;4.50;;;;;;;;;;4936832;28;20051;-49
2023/06/16 08:52:23;;;;;;;8.73;4.75;;;;;;;;;;4963634;28;20028;-50
2023/06/16 08:54:57;;;;;;;6.35;5.13;;;;;;;;;;4937588;28;20053;-50
2023/06/16 08:57:23;;;;;;;9.45;4.57;;;;;;;;;;5001655;28;20025;-48
2023/06/16 08:59:53;;;;;;;6.28;4.30;;;;;;;;;;4930040;28;20071;-48
2023/06/16 09:02:20;;;;;;;9.30;5.20;;;;;;;;;;4953772;28;20035;-49
2023/06/16 09:04:46;;;;;;;6.40;4.50;;;;;;;;;;4952110;28;20051;-47
2023/06/16 09:07:15;;;;;;;7.40;4.70;;;;;;;;;;4936591;28;20043;-50
2023/06/16 09:09:40;;;;;;;8.32;4.47;;;;;;;;;;4939824;28;20036;-48
2023/06/16 09:12:13;;;;;;;5.60;4.68;;;;;;;;;;4912675;28;20729;-49
2023/06/16 09:14:39;;;;;;;9.18;4.90;;;;;;;;;;4960400;28;20041;-52
2023/06/16 09:17:06;;;;;;;4.70;4.30;;;;;;;;;;4959669;28;20035;-50
2023/06/16 09:19:36;;;;;;;4.47;4.15;;;;;;;;;;4930888;28;20039;-51
2023/06/16 09:22:02;;;;;;;8.13;4.28;;;;;;;;;;4933079;28;20035;-52
2023/06/16 09:24:28;;;;;;;5.30;4.80;;;;;;;;;;4940192;28;20046;-50
2023/06/16 09:26:59;;;;;;;4.80;4.40;;;;;;;;;;4926376;28;20029;-50
2023/06/16 09:29:26;;;;;;;6.05;4.47;;;;;;;;;;4954987;28;20048;-50
2023/06/16 09:31:52;;;;;;;8.82;4.90;;;;;;;;;;4958427;28;20089;-52
2023/06/16 09:34:18;;;;;;;7.97;4.50;;;;;;;;;;4957455;28;20042;-49
2023/06/16 09:36:43;;;;;;;4.57;4.18;;;;;;;;;;4934285;28;20036;-50
2023/06/16 09:39:25;;;;;;;4.82;4.40;;;;;;;;;;4938071;28;20328;-51
2023/06/16 09:41:53;;;;;;;4.70;4.30;;;;;;;;;;4947796;28;20020;-49
2023/06/16 09:44:21;;;;;;;6.47;4.10;;;;;;;;;;4968890;28;20042;-53
2023/06/16 09:46:49;;;;;;;5.25;4.28;;;;;;;;;;4953086;28;20032;-48
2023/06/16 09:49:23;;;;;;;5.07;4.45;;;;;;;;;;4940295;28;20048;-53
2023/06/16 09:51:58;;;;;;;5.55;4.07;;;;;;;;;;4979657;28;20103;-52
2023/06/16 09:54:26;;;;;;;5.60;4.63;;;;;;;;;;4914697;28;20181;-50
2023/06/16 09:56:58;;;;;;;4.93;4.47;;;;;;;;;;4930032;28;20027;-51
2023/06/16 09:59:26;;;;;;;6.63;4.22;;;;;;;;;;4948644;28;20554;-51
2023/06/16 10:01:54;;;;;;;4.70;4.28;;;;;;;;;;4930357;29;20039;-50
2023/06/16 10:04:23;;;;;;;4.55;4.07;;;;;;;;;;4935590;28;20047;-52
2023/06/16 10:06:54;;;;;;;6.65;4.10;;;;;;;;;;4931439;28;20068;-49
2023/06/16 10:09:37;;;;;;;4.53;4.13;;;;;;;;;;4932576;28;20127;-49
2023/06/16 10:12:03;;;;;;;4.88;4.30;;;;;;;;;;4933911;28;20070;-49
2023/06/16 10:14:33;;;;;;;6.15;4.18;;;;;;;;;;4927549;28;20054;-49
2023/06/16 10:17:00;;;;;;;4.43;4.00;;;;;;;;;;4947099;28;20111;-48
2023/06/16 10:19:27;;;;;;;5.55;4.55;;;;;;;;;;4926641;28;20450;-46
2023/06/16 10:21:55;;;;;;;4.20;3.80;;;;;;;;;;4937488;28;20035;-52
2023/06/16 10:24:20;;;;;;;4.10;3.78;;;;;;;;;;4925984;28;20066;-51
2023/06/16 10:26:47;;;;;;;5.15;3.83;;;;;;;;;;4964473;28;20031;-50
2023/06/16 10:29:17;;;;;;;8.20;4.57;;;;;;;;;;4942876;28;20035;-53
2023/06/16 10:31:51;;;;;;;4.53;4.18;;;;;;;;;;4984426;28;20639;-49
2023/06/16 10:34:22;;;;;;;5.03;4.45;;;;;;;;;;4930027;28;20047;-48
2023/06/16 10:36:51;;;;;;;5.60;4.65;;;;;;;;;;4932340;28;20039;-50
2023/06/16 10:39:16;;;;;;;4.82;3.85;;;;;;;;;;4929686;28;20040;-48
2023/06/16 10:41:51;;;;;;;4.93;3.78;;;;;;;;;;4942725;28;20036;-53
2023/06/16 10:44:29;;;;;;;7.70;4.30;;;;;;;;;;4932055;28;20032;-52
2023/06/16 10:47:10;;;;;;;4.88;3.88;;;;;;;;;;4931759;28;20114;-49
2023/06/16 10:49:57;;;;;;;5.93;3.83;;;;;;;;;;4931196;28;20753;-50
2023/06/16 10:52:28;;;;;;;6.40;3.53;;;;;;;;;;4933353;28;20579;-52
2023/06/16 10:54:55;;;;;;;;;;;;;;;;;;4933650;28;20592;-53
2023/06/16 10:57:21;;;;;;;11.27;4.30;;;;;;;;;;4939842;28;19915;-52
2023/06/16 11:00:17;;;;;;;5.82;4.00;;;;;;;;;;4931047;28;20420;-50
2023/06/16 11:02:51;;;;;;;4.22;3.90;;;;;;;;;;4941903;28;20039;-51
2023/06/16 11:05:20;;;;;;;4.40;3.92;;;;;;;;;;4929730;28;20479;-48
2023/06/16 11:08:08;;;;;;;4.10;3.78;;;;;;;;;;4942708;28;20028;-51
2023/06/16 11:10:51;;;;;;;5.10;4.00;;;;;;;;;;4919015;28;20123;-48
2023/06/16 11:13:26;;;;;;;6.28;3.50;;;;;;;;;;4929150;28;20039;-53
2023/06/16 11:15:55;;;;;;;4.13;3.83;;;;;;;;;;4933807;28;20642;-49
2023/06/16 11:18:25;;;;;;;9.02;4.03;;;;;;;;;;4928310;28;20504;-49
2023/06/16 11:20:58;;;;;;;6.25;3.80;;;;;;;;;;4929279;28;20048;-49
2023/06/16 11:23:24;;;;;;;4.80;4.40;;;;;;;;;;4928312;28;20032;-51
2023/06/16 11:25:50;;;;;;;4.38;3.85;;;;;;;;;;4967897;28;20051;-50
2023/06/16 11:28:20;;;;;;;3.95;3.65;;;;;;;;;;4933599;28;20039;-44
2023/06/16 11:30:46;;;;;;;4.65;3.90;;;;;;;;;;4932324;28;20828;-45
2023/06/16 11:33:15;;;;;;;4.75;4.05;;;;;;;;;;4935106;28;20512;-43
2023/06/16 11:35:41;;;;;;;4.70;3.95;;;;;;;;;;4963464;28;20137;-42
2023/06/16 11:38:07;;;;;;;4.75;3.75;;;;;;;;;;4939099;28;20035;-44
2023/06/16 11:40:35;;;;;;;4.45;3.75;;;;;;;;;;4923138;28;20046;-45
2023/06/16 11:43:05;;;;;;;4.68;4.03;;;;;;;;;;4939843;28;20110;-46
2023/06/16 11:45:36;;;;;;;4.13;3.40;;;;;;;;;;4946503;29;20019;-43
2023/06/16 11:48:04;;;;;;;6.30;3.72;;;;;;;;;;4920447;28;20036;-44
2023/06/16 11:50:30;;;;;;;4.50;4.10;;;;;;;;;;4936202;28;20055;-44
2023/06/16 11:52:56;;;;;;;5.32;3.97;;;;;;;;;;4969394;28;20036;-47
2023/06/16 11:55:22;;;;;;;6.35;4.53;;;;;;;;;;4934021;28;20043;-46
2023/06/16 11:57:47;;;;;;;6.97;3.90;;;;;;;;;;4934965;28;20585;-44
2023/06/16 12:00:14;;;;;;;3.85;3.50;;;;;;;;;;4933654;28;20024;-45
2023/06/16 12:02:42;;;;;;;4.47;3.80;;;;;;;;;;4952160;28;20446;-43
2023/06/16 12:05:10;;;;;;;5.75;3.85;;;;;;;;;;4935434;28;20032;-43
2023/06/16 12:07:37;;;;;;;8.23;3.90;;;;;;;;;;4959260;28;20039;-42
2023/06/16 12:10:04;;;;;;;11.32;3.67;;;;;;;;;;4927114;28;20540;-43
2023/06/16 12:12:33;;;;;;;7.38;3.53;;;;;;;;;;4937177;28;20038;-43
2023/06/16 12:15:00;;;;;;;4.50;3.92;;;;;;;;;;4945077;28;20067;-45
2023/06/16 12:17:25;;;;;;;4.80;3.63;;;;;;;;;;4949666;28;20410;-42
2023/06/16 12:19:52;;;;;;;4.57;3.55;;;;;;;;;;4966940;28;20024;-45
2023/06/16 12:22:18;;;;;;;3.90;3.58;;;;;;;;;;4939428;28;20790;-45
2023/06/16 12:24:43;;;;;;;5.07;3.88;;;;;;;;;;4966602;28;20036;-44
2023/06/16 12:27:20;;;;;;;3.72;3.35;;;;;;;;;;4939789;28;20162;-44
2023/06/16 12:29:46;;;;;;;6.07;3.40;;;;;;;;;;4966278;28;20028;-47
2023/06/16 12:32:11;;;;;;;7.88;3.55;;;;;;;;;;4940077;28;20415;-42
2023/06/16 12:34:36;;;;;;;3.50;3.20;;;;;;;;;;4967940;28;20051;-44
2023/06/16 12:37:13;;;;;;;3.92;3.20;;;;;;;;;;4932384;28;20119;-47
2023/06/16 12:39:43;;;;;;;4.25;3.70;;;;;;;;;;4943131;28;20101;-42
2023/06/16 12:42:12;;;;;;;9.18;3.58;;;;;;;;;;4921344;28;20488;-46
2023/06/16 12:44:44;;;;;;;4.80;3.45;;;;;;;;;;4937212;28;20081;-45
2023/06/16 12:47:12;;;;;;;3.47;3.28;;;;;;;;;;4931366;28;20042;-44
2023/06/16 12:49:37;;;;;;;3.88;3.50;;;;;;;;;;4927173;28;20031;-44
2023/06/16 12:52:04;;;;;;;11.05;3.70;;;;;;;;;;4917404;28;20027;-43
2023/06/16 12:54:29;;;;;;;3.50;3.30;;;;;;;;;;4936097;28;20053;-45
2023/06/16 12:56:55;;;;;;;3.65;3.40;;;;;;;;;;4955262;28;20032;-44
2023/06/16 12:59:20;;;;;;;3.92;3.50;;;;;;;;;;4948266;28;20054;-42
2023/06/16 13:01:46;;;;;;;7.07;4.40;;;;;;;;;;4945744;28;20138;-46
2023/06/16 13:04:11;;;;;;;6.32;3.60;;;;;;;;;;4930146;28;20030;-47
2023/06/16 13:06:37;;;;;;;5.72;3.45;;;;;;;;;;4917142;28;20036;-47
2023/06/16 13:09:03;;;;;;;6.13;3.85;;;;;;;;;;4934854;28;20038;-48
2023/06/16 13:11:28;;;;;;;6.07;3.53;;;;;;;;;;4932854;28;20616;-46
2023/06/16 13:13:54;;;;;;;5.03;3.55;;;;;;;;;;4952355;28;20039;-44
2023/06/16 13:16:19;;;;;;;6.03;3.67;;;;;;;;;;4945589;28;20100;-46
2023/06/16 13:18:45;;;;;;;8.93;3.60;;;;;;;;;;4960148;28;20035;-45
2023/06/16 13:21:11;;;;;;;5.40;3.78;;;;;;;;;;4939630;28;20044;-47
2023/06/16 13:23:36;;;;;;;5.95;3.63;;;;;;;;;;4990720;28;20041;-48
2023/06/16 13:26:02;;;;;;;5.25;3.65;;;;;;;;;;4933890;28;20521;-44
2023/06/16 13:28:27;;;;;;;4.45;4.05;;;;;;;;;;4899937;28;20513;-43
2023/06/16 13:30:52;;;;;;;3.80;3.50;;;;;;;;;;4900250;28;20632;-45
2023/06/16 13:33:18;;;;;;;4.30;3.78;;;;;;;;;;4969659;28;20126;-43
2023/06/16 13:35:43;;;;;;;5.60;3.65;;;;;;;;;;4952801;28;20034;-42
2023/06/16 13:38:09;;;;;;;4.80;3.53;;;;;;;;;;4944540;28;20066;-45
2023/06/16 13:40:34;;;;;;;4.85;3.30;;;;;;;;;;4915563;28;20035;-44
2023/06/16 13:43:02;;;;;;;3.78;3.47;;;;;;;;;;4918142;28;20449;-43
2023/06/16 13:45:28;;;;;;;16.73;3.72;;;;;;;;;;4922983;29;20028;-45
2023/06/16 13:47:53;;;;;;;4.93;3.58;;;;;;;;;;4931684;28;20050;-42
2023/06/16 13:50:19;;;;;;;6.40;3.20;;;;;;;;;;4934319;28;20019;-45
2023/06/16 13:52:44;;;;;;;6.10;3.65;;;;;;;;;;4941049;28;20044;-44
2023/06/16 13:55:10;;;;;;;3.70;3.40;;;;;;;;;;4941535;28;20027;-45
2023/06/16 13:57:36;;;;;;;5.38;3.13;;;;;;;;;;4936383;28;20059;-42
2023/06/16 14:00:05;;;;;;;4.65;3.38;;;;;;;;;;4914530;28;20087;-45
2023/06/16 14:02:31;;;;;;;3.35;3.05;;;;;;;;;;4928417;28;20035;-48
2023/06/16 14:04:56;;;;;;;9.93;4.00;;;;;;;;;;4920151;28;20497;-43
2023/06/16 14:07:22;;;;;;;6.05;3.20;;;;;;;;;;4928219;28;20039;-43
2023/06/16 14:09:47;;;;;;;3.60;3.28;;;;;;;;;;4922721;29;20108;-42
2023/06/16 14:12:13;;;;;;;6.65;3.17;;;;;;;;;;4927248;28;20115;-42
2023/06/16 14:14:38;;;;;;;3.00;2.80;;;;;;;;;;4933614;28;20028;-46
2023/06/16 14:17:04;;;;;;;3.70;3.22;;;;;;;;;;4932650;28;20064;-45
2023/06/16 14:19:29;;;;;;;5.82;3.40;;;;;;;;;;4927922;28;20093;-43
2023/06/16 14:21:55;;;;;;;4.00;3.60;;;;;;;;;;4947759;28;20053;-45
2023/06/16 14:24:21;;;;;;;4.10;3.50;;;;;;;;;;4933168;28;20115;-45
2023/06/16 14:26:46;;;;;;;4.57;3.30;;;;;;;;;;4928595;28;20130;-45
2023/06/16 14:29:12;;;;;;;4.88;3.30;;;;;;;;;;4931892;28;20042;-42
2023/06/16 14:31:37;;;;;;;4.57;3.60;;;;;;;;;;4931755;28;20044;-49
2023/06/16 14:34:03;;;;;;;3.63;3.13;;;;;;;;;;4946998;28;20144;-45
2023/06/16 14:36:28;;;;;;;6.15;3.30;;;;;;;;;;4917378;28;20071;-45
2023/06/16 14:38:54;;;;;;;3.47;3.17;;;;;;;;;;4976116;28;20027;-43
2023/06/16 14:41:20;;;;;;;3.70;3.17;;;;;;;;;;4926288;28;20581;-43
2023/06/16 14:43:45;;;;;;;3.80;2.92;;;;;;;;;;4916316;28;20081;-42